Time;durP1;ratioP1;P1;durP2;ratioP2;P2;SDS_P1;SDS_P2;PMS_P1;PMS_P2;Temp;Humidity;BMP_temperature;BMP_pressure;BME280_temperature;BME280_humidity;BME280_pressure;Samples;Min_cycle;Max_cycle;Signal;HPM_P1;HPM_P2
2023/12/20 00:00:59;;;;;;;1.70;1.60;;;8.10;99.90;;;;;;5113468;28;20413;-71
2023/12/20 00:03:24;;;;;;;1.43;1.33;;;8.10;99.90;;;;;;5114452;28;20546;-71
2023/12/20 00:05:50;;;;;;;2.07;1.53;;;8.10;99.90;;;;;;5114860;28;20168;-71
2023/12/20 00:08:16;;;;;;;1.90;1.70;;;8.10;99.90;;;;;;5114495;28;20165;-71
2023/12/20 00:10:42;;;;;;;1.53;1.40;;;8.10;99.90;;;;;;5114531;28;20657;-71
2023/12/20 00:13:08;;;;;;;2.93;1.87;;;8.10;99.90;;;;;;5115127;28;20421;-71
2023/12/20 00:15:34;;;;;;;2.30;1.40;;;8.20;99.90;;;;;;5114026;28;20421;-71
2023/12/20 00:18:00;;;;;;;1.77;1.57;;;8.30;99.90;;;;;;5095938;28;20824;-71
2023/12/20 00:20:26;;;;;;;1.80;1.50;;;8.30;99.90;;;;;;5114389;28;20222;-70
2023/12/20 00:22:54;;;;;;;1.50;1.40;;;8.30;99.90;;;;;;5114287;28;20792;-71
2023/12/20 00:25:20;;;;;;;1.40;1.30;;;8.40;99.90;;;;;;5114153;28;20446;-71
2023/12/20 00:27:45;;;;;;;1.60;1.30;;;8.30;99.90;;;;;;5114608;28;20940;-71
2023/12/20 00:30:11;;;;;;;1.50;1.20;;;8.40;99.90;;;;;;5114463;28;20170;-69
2023/12/20 00:32:37;;;;;;;1.60;1.50;;;8.30;99.90;;;;;;5114215;28;20239;-71
2023/12/20 00:35:03;;;;;;;1.60;1.30;;;8.30;99.90;;;;;;5113584;28;20168;-70
2023/12/20 00:37:29;;;;;;;1.93;1.40;;;8.40;99.90;;;;;;5114003;28;20418;-71
2023/12/20 00:39:54;;;;;;;1.73;1.23;;;8.30;99.90;;;;;;5113911;28;20410;-71
2023/12/20 00:42:20;;;;;;;1.97;1.50;;;8.40;99.90;;;;;;5113753;28;20210;-71
2023/12/20 00:44:46;;;;;;;1.73;1.23;;;8.20;99.90;;;;;;5113805;28;20172;-71
2023/12/20 00:47:11;;;;;;;1.67;1.40;;;8.20;99.90;;;;;;5114036;28;20184;-71
2023/12/20 00:49:37;;;;;;;1.60;1.50;;;8.20;99.90;;;;;;5113908;28;20171;-71
2023/12/20 00:52:03;;;;;;;1.87;1.27;;;8.10;99.90;;;;;;5113835;28;20540;-71
2023/12/20 00:54:30;;;;;;;1.60;1.20;;;8.30;99.90;;;;;;5113835;28;20541;-71
2023/12/20 00:56:56;;;;;;;2.77;1.30;;;8.30;99.90;;;;;;5114134;28;20403;-71
2023/12/20 00:59:21;;;;;;;1.83;1.57;;;8.30;99.90;;;;;;5113672;28;20409;-70
2023/12/20 01:01:47;;;;;;;1.90;1.03;;;8.30;99.90;;;;;;5113531;28;20165;-71
2023/12/20 01:04:13;;;;;;;1.20;1.07;;;8.10;99.90;;;;;;5113594;28;20274;-71
2023/12/20 01:06:38;;;;;;;1.37;1.20;;;8.10;99.90;;;;;;5113665;28;20599;-70
2023/12/20 01:09:04;;;;;;;1.40;1.30;;;8.20;99.90;;;;;;5113761;28;20169;-71
2023/12/20 01:11:29;;;;;;;1.20;1.10;;;8.00;99.90;;;;;;5113654;28;20168;-71
2023/12/20 01:13:55;;;;;;;1.33;1.07;;;8.10;99.90;;;;;;5113477;28;20665;-70
2023/12/20 01:16:21;;;;;;;1.40;1.23;;;7.90;99.90;;;;;;5113826;28;20251;-71
2023/12/20 01:18:46;;;;;;;1.43;1.20;;;8.00;99.90;;;;;;5113284;28;20171;-71
2023/12/20 01:21:12;;;;;;;1.17;1.00;;;8.00;99.90;;;;;;5113479;28;20667;-71
2023/12/20 01:23:38;;;;;;;1.50;1.40;;;7.90;99.90;;;;;;5113875;28;20283;-70
2023/12/20 01:26:05;;;;;;;1.23;1.13;;;8.10;99.90;;;;;;5113931;28;20834;-71
2023/12/20 01:28:31;;;;;;;2.33;1.50;;;8.10;99.90;;;;;;5113757;28;20266;-71
2023/12/20 01:30:57;;;;;;;2.50;1.40;;;8.10;99.90;;;;;;5113807;28;20451;-71
2023/12/20 01:33:23;;;;;;;1.23;1.10;;;8.00;99.90;;;;;;5113341;28;20188;-71
2023/12/20 01:35:49;;;;;;;1.50;1.40;;;8.10;99.90;;;;;;5113388;28;20539;-71
2023/12/20 01:38:14;;;;;;;1.20;1.07;;;8.30;99.90;;;;;;5113228;28;20169;-71
2023/12/20 01:40:40;;;;;;;2.50;1.27;;;8.40;99.90;;;;;;5095084;28;20435;-70
2023/12/20 01:43:09;;;;;;;1.33;1.10;;;8.40;99.90;;;;;;5118592;22;20598;-70
2023/12/20 01:45:35;;;;;;;1.50;1.30;;;8.50;99.90;;;;;;5072553;28;20213;-69
2023/12/20 01:48:02;;;;;;;1.10;1.00;;;8.50;99.90;;;;;;5071172;28;20401;-71
2023/12/20 01:50:29;;;;;;;1.80;1.33;;;8.40;99.90;;;;;;5076274;28;20402;-70
2023/12/20 01:52:57;;;;;;;2.07;1.30;;;8.50;99.90;;;;;;5076835;28;20760;-70
2023/12/20 01:55:24;;;;;;;1.10;1.00;;;8.50;99.90;;;;;;5076552;28;20992;-70
2023/12/20 01:57:50;;;;;;;1.30;0.90;;;8.50;99.90;;;;;;5076514;28;20492;-70
2023/12/20 02:00:16;;;;;;;1.03;0.93;;;8.50;99.90;;;;;;5076647;28;20430;-70
2023/12/20 02:02:44;;;;;;;1.20;0.90;;;8.50;99.90;;;;;;5076371;28;20530;-70
2023/12/20 02:05:10;;;;;;;1.10;1.00;;;8.60;99.90;;;;;;5076508;28;20500;-70
2023/12/20 02:07:36;;;;;;;1.20;1.00;;;8.50;99.90;;;;;;5076218;28;20435;-70
2023/12/20 02:10:03;;;;;;;1.30;1.10;;;8.60;99.90;;;;;;5076251;28;20450;-71
2023/12/20 02:12:29;;;;;;;1.33;1.00;;;8.60;99.90;;;;;;5075435;28;20196;-71
2023/12/20 02:14:55;;;;;;;1.43;1.23;;;8.60;99.90;;;;;;5077355;28;20898;-70
2023/12/20 02:17:20;;;;;;;1.40;1.30;;;8.40;99.90;;;;;;5075563;28;20165;-71
2023/12/20 02:19:46;;;;;;;1.57;1.00;;;8.50;99.90;;;;;;5077059;28;20177;-71
2023/12/20 02:22:12;;;;;;;1.80;1.23;;;8.70;99.90;;;;;;5076503;28;20169;-71
2023/12/20 02:24:38;;;;;;;1.20;1.00;;;8.60;99.90;;;;;;5076144;28;20431;-69
2023/12/20 02:27:06;;;;;;;1.60;1.50;;;8.60;99.90;;;;;;5075913;28;20408;-70
2023/12/20 02:29:36;;;;;;;1.50;1.00;;;8.70;99.90;;;;;;5075848;28;20410;-70
2023/12/20 02:32:02;;;;;;;1.50;1.37;;;8.70;99.90;;;;;;5076074;28;20435;-71
2023/12/20 02:34:28;;;;;;;1.30;1.20;;;8.80;99.90;;;;;;5074167;28;20519;-70
2023/12/20 02:36:54;;;;;;;1.40;1.00;;;8.70;99.90;;;;;;5075818;28;20498;-71
2023/12/20 02:39:21;;;;;;;1.20;1.10;;;8.80;99.90;;;;;;5075949;28;20400;-72
2023/12/20 02:41:47;;;;;;;1.60;1.33;;;8.70;99.90;;;;;;5075800;28;20179;-71
2023/12/20 02:44:13;;;;;;;2.00;1.60;;;8.70;99.90;;;;;;5110555;28;20450;-70
2023/12/20 02:46:38;;;;;;;2.13;1.53;;;8.80;99.90;;;;;;5116447;28;20166;-70
2023/12/20 02:49:04;;;;;;;1.50;1.40;;;8.80;99.90;;;;;;5116092;28;20160;-70
2023/12/20 02:51:29;;;;;;;1.57;1.47;;;8.80;99.90;;;;;;5116030;28;20736;-71
2023/12/20 02:53:55;;;;;;;1.80;1.50;;;8.80;99.90;;;;;;5115953;28;20244;-70
2023/12/20 02:56:21;;;;;;;1.67;1.10;;;8.80;99.90;;;;;;5115960;28;20685;-71
2023/12/20 02:58:46;;;;;;;1.57;1.37;;;8.70;99.90;;;;;;5116301;28;20162;-70
2023/12/20 03:01:12;;;;;;;1.70;1.50;;;8.70;99.90;;;;;;5115434;28;20166;-70
2023/12/20 03:03:37;;;;;;;2.90;1.70;;;8.70;99.90;;;;;;5115696;28;20200;-70
2023/12/20 03:06:03;;;;;;;2.20;1.90;;;8.60;99.90;;;;;;5115787;28;20161;-70
2023/12/20 03:08:28;;;;;;;2.03;1.83;;;8.70;99.90;;;;;;5116448;28;20237;-70
2023/12/20 03:10:54;;;;;;;1.47;1.30;;;8.60;99.90;;;;;;5097397;28;20167;-71
2023/12/20 03:13:20;;;;;;;1.90;1.60;;;8.60;99.90;;;;;;5115536;28;20188;-70
2023/12/20 03:15:46;;;;;;;2.20;1.20;;;8.60;99.90;;;;;;5115561;28;20165;-71
2023/12/20 03:18:11;;;;;;;1.80;1.70;;;8.60;99.90;;;;;;5115416;28;20157;-71
2023/12/20 03:20:37;;;;;;;2.33;1.83;;;8.50;99.90;;;;;;5097228;28;20440;-70
2023/12/20 03:23:03;;;;;;;2.03;1.83;;;8.60;99.90;;;;;;5097129;28;20180;-70
2023/12/20 03:25:29;;;;;;;1.67;1.40;;;8.60;99.90;;;;;;5115132;28;20200;-70
2023/12/20 03:27:55;;;;;;;2.90;0.97;;;8.50;99.90;;;;;;5115255;28;20413;-70
2023/12/20 03:30:20;;;;;;;1.37;1.27;;;8.20;99.90;;;;;;5115360;28;20164;-70
2023/12/20 03:32:47;;;;;;;1.57;1.27;;;8.30;99.90;;;;;;5115126;28;20184;-70
2023/12/20 03:35:13;;;;;;;0.70;0.70;;;8.40;99.90;;;;;;5115089;28;20174;-70
2023/12/20 03:37:38;;;;;;;2.10;0.80;;;8.40;99.90;;;;;;5114847;28;20400;-70
2023/12/20 03:40:04;;;;;;;0.90;0.60;;;8.40;99.90;;;;;;5115256;28;20252;-70
2023/12/20 03:42:30;;;;;;;1.27;0.70;;;8.40;99.90;;;;;;5114749;28;20195;-70
2023/12/20 03:44:56;;;;;;;2.33;0.80;;;8.20;99.90;;;;;;5094913;28;20554;-71
2023/12/20 03:47:21;;;;;;;1.67;0.60;;;8.10;99.90;;;;;;5094642;28;20170;-69
2023/12/20 03:49:47;;;;;;;0.70;0.50;;;7.90;99.90;;;;;;5094845;28;20168;-70
2023/12/20 03:52:13;;;;;;;0.80;0.60;;;8.00;99.90;;;;;;5094352;28;20215;-71
2023/12/20 03:54:38;;;;;;;1.10;0.70;;;7.90;99.90;;;;;;5112058;28;20190;-70
2023/12/20 03:57:04;;;;;;;0.80;0.70;;;8.00;99.90;;;;;;5114825;28;20169;-69
2023/12/20 03:59:34;;;;;;;1.00;0.83;;;7.90;99.90;;;;;;5096626;28;20172;-70
2023/12/20 04:02:00;;;;;;;1.27;0.60;;;7.80;99.90;;;;;;5114474;28;20175;-70
2023/12/20 04:04:25;;;;;;;0.87;0.70;;;7.90;99.90;;;;;;5098974;28;20516;-71
2023/12/20 04:06:51;;;;;;;1.00;0.70;;;8.10;99.90;;;;;;5094502;28;20168;-70
2023/12/20 04:09:16;;;;;;;0.90;0.60;;;8.10;99.90;;;;;;5094150;28;20164;-71
2023/12/20 04:11:42;;;;;;;0.70;0.50;;;8.10;99.90;;;;;;5093724;28;20170;-71
2023/12/20 04:14:07;;;;;;;0.70;0.50;;;7.90;99.90;;;;;;5106462;28;20336;-71
2023/12/20 04:16:33;;;;;;;0.70;0.50;;;7.90;99.90;;;;;;5114444;28;20168;-70
2023/12/20 04:18:59;;;;;;;1.67;0.60;;;8.00;99.90;;;;;;5096678;28;20188;-70
2023/12/20 04:21:24;;;;;;;0.60;0.50;;;8.10;99.90;;;;;;5075783;28;20173;-71
2023/12/20 04:23:50;;;;;;;1.90;0.60;;;8.30;99.90;;;;;;5103712;28;20499;-71
2023/12/20 04:26:15;;;;;;;0.70;0.50;;;8.20;99.90;;;;;;5114490;28;20166;-71
2023/12/20 04:28:41;;;;;;;1.00;0.60;;;8.10;99.90;;;;;;5114657;28;20216;-70
2023/12/20 04:31:06;;;;;;;0.67;0.50;;;8.00;99.90;;;;;;5114502;28;20166;-70
2023/12/20 04:33:32;;;;;;;0.70;0.40;;;8.00;99.90;;;;;;5106660;28;20671;-70
2023/12/20 04:35:58;;;;;;;1.00;0.50;;;8.00;99.90;;;;;;5094067;28;20177;-70
2023/12/20 04:38:23;;;;;;;0.83;0.60;;;8.00;99.90;;;;;;5093791;28;20196;-71
2023/12/20 04:40:49;;;;;;;1.13;0.50;;;8.00;99.90;;;;;;5093012;28;20404;-70
2023/12/20 04:43:14;;;;;;;0.90;0.50;;;7.90;99.90;;;;;;5082748;28;20224;-70
2023/12/20 04:45:40;;;;;;;1.50;0.60;;;8.10;99.90;;;;;;5073554;28;20174;-70
2023/12/20 04:48:06;;;;;;;0.60;0.40;;;8.00;99.90;;;;;;5073479;28;20180;-71
2023/12/20 04:50:31;;;;;;;0.70;0.50;;;8.10;99.90;;;;;;5072278;28;20677;-70
2023/12/20 04:52:57;;;;;;;1.30;0.50;;;8.00;99.90;;;;;;5073211;28;20200;-71
2023/12/20 04:55:23;;;;;;;0.70;0.40;;;8.20;99.90;;;;;;5072177;28;20185;-71
2023/12/20 04:57:48;;;;;;;1.67;0.60;;;8.20;99.90;;;;;;5074086;28;20650;-71
2023/12/20 05:00:15;;;;;;;0.90;0.60;;;8.10;99.90;;;;;;5074637;28;20170;-70
2023/12/20 05:02:41;;;;;;;0.87;0.50;;;7.80;99.90;;;;;;5076251;28;20191;-71
2023/12/20 05:05:07;;;;;;;2.00;0.57;;;7.90;99.90;;;;;;5075837;28;20450;-72
2023/12/20 05:07:33;;;;;;;0.70;0.47;;;8.00;99.90;;;;;;5074486;28;20465;-71
2023/12/20 05:09:59;;;;;;;0.77;0.53;;;7.90;99.90;;;;;;5075066;28;20408;-71
2023/12/20 05:12:25;;;;;;;0.90;0.57;;;7.90;99.90;;;;;;5073822;28;20169;-71
2023/12/20 05:14:52;;;;;;;1.03;0.53;;;7.90;99.90;;;;;;5073833;28;20414;-71
2023/12/20 05:17:17;;;;;;;0.77;0.47;;;7.60;99.90;;;;;;5073112;28;20554;-70
2023/12/20 05:19:43;;;;;;;0.70;0.60;;;7.60;99.90;;;;;;5072605;28;20476;-71
2023/12/20 05:22:09;;;;;;;1.20;0.60;;;7.70;99.90;;;;;;5073578;28;20181;-71
2023/12/20 05:24:35;;;;;;;6.70;5.50;;;7.50;99.90;;;;;;5076504;28;20186;-70
2023/12/20 05:27:00;;;;;;;11.73;10.50;;;7.60;99.90;;;;;;5069126;28;20460;-70
2023/12/20 05:29:26;;;;;;;32.43;28.67;;;7.50;99.90;;;;;;5068850;28;20541;-71
2023/12/20 05:31:51;;;;;;;24.33;21.13;;;7.30;99.90;;;;;;5069572;28;20720;-72
2023/12/20 05:34:17;;;;;;;11.43;10.27;;;7.50;99.90;;;;;;5071419;28;20306;-71
2023/12/20 05:36:42;;;;;;;4.13;3.47;;;7.70;99.90;;;;;;5077614;28;20172;-70
2023/12/20 05:39:08;;;;;;;8.03;6.10;;;7.70;99.90;;;;;;5078435;28;20654;-71
2023/12/20 05:41:34;;;;;;;47.83;42.43;;;7.60;99.90;;;;;;5077146;28;20614;-70
2023/12/20 05:43:59;;;;;;;27.33;24.43;;;7.50;99.90;;;;;;5108454;28;20279;-71
2023/12/20 05:46:26;;;;;;;5.90;5.30;;;7.70;99.90;;;;;;5100477;28;20168;-71
2023/12/20 05:48:51;;;;;;;5.17;4.70;;;7.60;99.90;;;;;;5118297;28;20172;-70
2023/12/20 05:51:18;;;;;;;7.83;4.37;;;7.50;99.90;;;;;;5118868;28;20459;-70
2023/12/20 05:53:44;;;;;;;4.00;3.67;;;7.60;99.90;;;;;;5118158;28;20202;-70
2023/12/20 05:56:10;;;;;;;1.93;1.60;;;7.70;99.90;;;;;;5100128;28;20421;-72
2023/12/20 05:58:36;;;;;;;2.00;1.20;;;7.70;99.90;;;;;;5118241;28;20439;-71
2023/12/20 06:01:04;;;;;;;2.07;1.87;;;7.60;99.90;;;;;;5119778;28;20195;-70
2023/12/20 06:03:30;;;;;;;1.60;0.70;;;7.60;99.90;;;;;;5119817;28;20195;-70
2023/12/20 06:05:55;;;;;;;2.90;2.60;;;7.40;99.90;;;;;;5120524;28;20400;-72
2023/12/20 06:08:21;;;;;;;4.00;1.93;;;7.40;99.90;;;;;;5119582;28;20186;-71
2023/12/20 06:10:46;;;;;;;1.87;1.77;;;7.60;99.90;;;;;;5120187;28;20217;-70
2023/12/20 06:13:13;;;;;;;8.60;7.80;;;7.80;99.90;;;;;;5119843;28;20226;-71
2023/12/20 06:15:39;;;;;;;1.77;1.30;;;7.80;99.90;;;;;;5119510;28;20251;-71
2023/12/20 06:18:05;;;;;;;4.30;3.10;;;7.60;99.90;;;;;;5118500;28;20397;-71
2023/12/20 06:20:31;;;;;;;3.20;2.90;;;7.50;99.90;;;;;;5119851;28;20477;-70
2023/12/20 06:22:57;;;;;;;5.97;5.37;;;7.50;99.90;;;;;;5119735;28;20424;-70
2023/12/20 06:25:22;;;;;;;4.70;3.30;;;7.50;99.90;;;;;;5112570;28;20447;-71
2023/12/20 06:27:48;;;;;;;15.80;14.33;;;7.60;99.90;;;;;;5096311;28;20274;-71
2023/12/20 06:30:15;;;;;;;8.87;7.97;;;7.80;99.90;;;;;;5097659;28;20191;-69
2023/12/20 06:32:42;;;;;;;17.47;15.77;;;7.90;99.90;;;;;;5098890;28;20210;-71
2023/12/20 06:35:08;;;;;;;6.77;5.73;;;7.70;99.90;;;;;;5096876;28;20462;-71
2023/12/20 06:37:34;;;;;;;7.50;6.70;;;7.60;99.90;;;;;;5085274;28;20946;-70
2023/12/20 06:40:00;;;;;;;14.27;12.23;;;7.60;99.90;;;;;;5119301;28;20490;-71
2023/12/20 06:42:26;;;;;;;8.37;6.83;;;7.60;99.90;;;;;;5117349;28;20475;-71
2023/12/20 06:44:51;;;;;;;1.43;0.93;;;7.70;99.90;;;;;;5116188;28;20191;-71
2023/12/20 06:47:17;;;;;;;9.20;8.40;;;7.60;99.90;;;;;;5115986;28;20254;-70
2023/12/20 06:49:42;;;;;;;7.77;6.90;;;7.50;99.90;;;;;;5116404;28;20175;-70
2023/12/20 06:52:08;;;;;;;2.07;1.33;;;7.70;99.90;;;;;;5115917;28;20218;-70
2023/12/20 06:54:34;;;;;;;2.10;2.00;;;7.70;99.90;;;;;;5116428;28;20242;-70
2023/12/20 06:57:00;;;;;;;0.80;0.80;;;7.70;99.90;;;;;;5097807;28;20223;-71
2023/12/20 06:59:26;;;;;;;1.67;1.57;;;7.60;99.90;;;;;;5115709;28;20417;-70
2023/12/20 07:01:51;;;;;;;2.30;2.00;;;7.70;99.90;;;;;;5115880;28;20165;-71
2023/12/20 07:04:21;;;;;;;1.10;0.90;;;7.80;99.90;;;;;;5117103;28;20559;-71
2023/12/20 07:06:47;;;;;;;0.73;0.57;;;7.80;99.90;;;;;;5097865;28;20167;-70
2023/12/20 07:09:13;;;;;;;2.13;1.10;;;7.70;99.90;;;;;;5115754;28;20796;-70
2023/12/20 07:11:39;;;;;;;1.73;0.90;;;7.80;99.90;;;;;;5115602;28;20506;-70
2023/12/20 07:14:05;;;;;;;2.43;1.17;;;7.90;99.90;;;;;;5115474;28;20512;-71
2023/12/20 07:16:31;;;;;;;1.83;1.60;;;8.00;99.90;;;;;;5114002;28;20252;-70
2023/12/20 07:18:56;;;;;;;1.75;1.40;;;8.10;99.90;;;;;;5085153;28;20407;-71
2023/12/20 07:21:22;;;;;;;1.60;1.20;;;8.20;99.90;;;;;;5085228;28;20409;-72
2023/12/20 07:23:48;;;;;;;7.30;6.40;;;8.30;99.90;;;;;;5067361;28;20520;-70
2023/12/20 07:26:14;;;;;;;1.13;0.87;;;8.30;99.90;;;;;;5085296;28;20555;-69
2023/12/20 07:28:40;;;;;;;3.97;3.47;;;8.10;99.90;;;;;;5085696;28;20417;-70
2023/12/20 07:31:06;;;;;;;5.03;1.03;;;8.10;99.90;;;;;;5085188;28;20408;-71
2023/12/20 07:33:31;;;;;;;0.90;0.70;;;8.10;99.90;;;;;;5086410;28;20234;-70
2023/12/20 07:35:57;;;;;;;2.03;1.00;;;8.00;99.90;;;;;;5085981;28;20519;-70
2023/12/20 07:38:23;;;;;;;1.20;1.10;;;7.80;99.90;;;;;;5085562;28;20229;-71
2023/12/20 07:40:49;;;;;;;1.80;1.43;;;7.60;99.90;;;;;;5085019;28;20355;-72
2023/12/20 07:43:14;;;;;;;2.20;2.00;;;7.50;99.90;;;;;;5075555;28;20965;-71
2023/12/20 07:45:40;;;;;;;1.97;1.87;;;7.40;99.90;;;;;;5064335;28;20831;-71
2023/12/20 07:48:07;;;;;;;1.93;1.83;;;7.40;99.90;;;;;;5063688;28;20992;-71
2023/12/20 07:50:33;;;;;;;2.27;2.07;;;7.40;99.90;;;;;;5065110;28;20188;-71
2023/12/20 07:53:00;;;;;;;2.67;2.47;;;7.30;99.90;;;;;;5064198;28;20430;-72
2023/12/20 07:55:26;;;;;;;4.00;3.17;;;7.30;99.90;;;;;;5063535;28;20183;-72
2023/12/20 07:57:52;;;;;;;2.77;2.57;;;7.40;99.90;;;;;;5064036;28;20413;-74
2023/12/20 08:00:17;;;;;;;3.63;2.80;;;7.40;99.90;;;;;;5046373;28;20246;-73
2023/12/20 08:02:43;;;;;;;2.90;2.57;;;7.40;99.90;;;;;;5073793;28;20185;-70
2023/12/20 08:05:09;;;;;;;3.30;2.77;;;7.50;99.90;;;;;;5074412;28;20449;-72
2023/12/20 08:07:35;;;;;;;3.30;3.00;;;7.30;99.90;;;;;;5077903;28;20624;-71
2023/12/20 08:10:00;;;;;;;3.57;3.00;;;7.40;99.90;;;;;;5094519;28;20398;-72
2023/12/20 08:12:27;;;;;;;7.80;3.63;;;7.40;99.90;;;;;;5094191;28;20565;-71
2023/12/20 08:14:54;;;;;;;2.97;2.77;;;7.30;99.90;;;;;;5075855;28;20176;-72
2023/12/20 08:17:19;;;;;;;3.87;3.13;;;7.20;99.90;;;;;;5074400;28;20411;-70
2023/12/20 08:19:45;;;;;;;3.70;2.90;;;7.20;99.90;;;;;;5073817;28;20820;-71
2023/12/20 08:22:11;;;;;;;3.80;3.23;;;7.20;99.90;;;;;;5073103;28;20175;-71
2023/12/20 08:24:37;;;;;;;3.30;3.00;;;7.30;99.90;;;;;;5055419;28;20723;-71
2023/12/20 08:27:02;;;;;;;4.40;3.03;;;7.30;99.90;;;;;;5073444;28;20498;-70
2023/12/20 08:29:28;;;;;;;3.13;2.90;;;7.20;99.90;;;;;;5092440;28;20166;-72
2023/12/20 08:31:55;;;;;;;3.43;3.10;;;7.20;99.90;;;;;;5094074;28;20169;-73
2023/12/20 08:34:20;;;;;;;2.80;2.53;;;7.20;99.90;;;;;;5093487;28;20193;-69
2023/12/20 08:36:46;;;;;;;6.53;3.37;;;7.10;99.90;;;;;;5094031;28;20409;-69
2023/12/20 08:39:11;;;;;;;7.73;2.57;;;7.20;99.90;;;;;;5076967;28;20176;-70
2023/12/20 08:41:37;;;;;;;3.67;3.17;;;7.20;99.90;;;;;;5072173;28;20190;-73
2023/12/20 08:44:03;;;;;;;3.43;2.70;;;7.10;99.90;;;;;;5105409;28;20203;-70
2023/12/20 08:46:29;;;;;;;2.80;2.60;;;7.10;99.90;;;;;;5114011;28;20185;-70
2023/12/20 08:48:54;;;;;;;3.50;3.20;;;7.10;99.90;;;;;;5113735;28;20399;-70
2023/12/20 08:51:22;;;;;;;4.40;2.70;;;7.10;99.90;;;;;;5113970;28;20193;-70
2023/12/20 08:53:49;;;;;;;5.97;3.40;;;7.00;99.90;;;;;;5113750;28;20183;-70
2023/12/20 08:56:14;;;;;;;4.17;3.00;;;7.00;99.90;;;;;;5114106;28;20406;-70
2023/12/20 08:58:40;;;;;;;4.03;3.20;;;7.10;99.90;;;;;;5113840;28;20413;-71
2023/12/20 09:01:05;;;;;;;4.70;3.40;;;7.10;99.90;;;;;;5113667;28;20164;-71
2023/12/20 09:03:31;;;;;;;3.40;3.10;;;7.00;99.90;;;;;;5095148;28;20192;-71
2023/12/20 09:05:56;;;;;;;3.50;2.83;;;7.00;99.90;;;;;;5113613;28;20208;-70
2023/12/20 09:08:22;;;;;;;3.50;3.20;;;7.10;99.90;;;;;;5113547;28;20161;-70
2023/12/20 09:10:47;;;;;;;3.87;3.20;;;7.00;99.90;;;;;;5114041;28;20166;-70
2023/12/20 09:13:13;;;;;;;3.13;2.83;;;7.20;99.90;;;;;;5095122;28;20184;-71
2023/12/20 09:15:39;;;;;;;3.67;3.37;;;7.30;99.90;;;;;;5113620;28;20177;-68
2023/12/20 09:18:04;;;;;;;3.13;2.83;;;7.40;99.90;;;;;;5113605;28;20544;-69
2023/12/20 09:20:30;;;;;;;4.17;3.10;;;7.20;99.90;;;;;;5113499;28;20172;-70
2023/12/20 09:22:56;;;;;;;2.93;2.73;;;7.40;99.90;;;;;;5113327;28;20192;-71
2023/12/20 09:25:23;;;;;;;3.50;3.20;;;7.20;99.90;;;;;;5113673;28;20271;-71
2023/12/20 09:27:48;;;;;;;4.73;4.00;;;7.10;99.90;;;;;;5112923;28;20769;-70
2023/12/20 09:30:14;;;;;;;2.83;2.53;;;7.00;99.90;;;;;;5113153;28;20393;-70
2023/12/20 09:32:40;;;;;;;5.10;3.10;;;7.10;99.90;;;;;;5112970;28;20266;-72
2023/12/20 09:35:06;;;;;;;5.10;3.27;;;7.20;99.90;;;;;;5113166;28;20676;-70
2023/12/20 09:37:32;;;;;;;3.97;2.93;;;7.20;99.90;;;;;;5112605;28;20178;-71
2023/12/20 09:39:58;;;;;;;3.23;2.93;;;7.40;99.90;;;;;;5113014;28;20409;-71
2023/12/20 09:42:53;;;;;;;3.20;2.13;;;7.20;99.90;;;;;;5094865;28;20199;-72
2023/12/20 09:45:21;;;;;;;3.40;2.33;;;7.00;99.90;;;;;;5112905;28;20494;-69
2023/12/20 09:47:48;;;;;;;3.03;2.37;;;7.00;99.90;;;;;;5109454;28;20399;-69
2023/12/20 09:50:14;;;;;;;4.30;2.23;;;7.00;99.90;;;;;;5091394;28;20425;-71
2023/12/20 09:52:42;;;;;;;2.93;1.77;;;7.00;99.90;;;;;;5092724;28;20421;-69
2023/12/20 09:55:08;;;;;;;2.80;1.80;;;6.90;99.90;;;;;;5092779;28;20643;-70
2023/12/20 09:57:33;;;;;;;3.13;1.83;;;7.00;99.90;;;;;;5094370;28;20886;-70
2023/12/20 09:59:59;;;;;;;5.20;2.37;;;7.10;99.90;;;;;;5112950;28;20488;-70
2023/12/20 10:02:29;;;;;;;4.20;1.80;;;7.20;99.90;;;;;;5113331;28;20527;-72
2023/12/20 10:04:55;;;;;;;5.13;2.23;;;7.10;99.90;;;;;;5113253;28;20312;-71
2023/12/20 10:07:22;;;;;;;5.90;2.33;;;7.10;99.90;;;;;;5113242;28;20967;-69
2023/12/20 10:09:48;;;;;;;4.37;2.00;;;7.10;99.90;;;;;;5092984;28;20414;-69
2023/12/20 10:12:14;;;;;;;2.70;1.87;;;7.20;99.90;;;;;;5095463;28;20402;-68
2023/12/20 10:14:39;;;;;;;3.10;1.80;;;7.20;99.90;;;;;;5096160;28;20744;-69
2023/12/20 10:17:06;;;;;;;4.10;2.10;;;7.20;99.90;;;;;;5096573;28;20176;-70
2023/12/20 10:19:32;;;;;;;6.73;2.20;;;7.40;99.90;;;;;;5114087;28;20203;-73
2023/12/20 10:21:59;;;;;;;4.20;2.10;;;7.60;99.90;;;;;;5116679;28;20467;-70
2023/12/20 10:24:25;;;;;;;3.10;1.73;;;7.60;99.90;;;;;;5116544;28;20453;-70
2023/12/20 10:27:04;;;;;;;2.63;1.90;;;7.70;99.90;;;;;;5116388;28;20406;-70
2023/12/20 10:29:34;;;;;;;3.40;1.53;;;7.70;99.90;;;;;;5094491;28;20195;-69
2023/12/20 10:31:59;;;;;;;8.93;1.97;;;7.60;99.90;;;;;;5095819;28;20395;-69
2023/12/20 10:34:25;;;;;;;6.37;2.40;;;7.60;99.90;;;;;;5095987;28;20831;-68
2023/12/20 10:36:52;;;;;;;2.53;1.93;;;7.60;99.90;;;;;;5096049;28;20651;-69
2023/12/20 10:39:20;;;;;;;5.03;2.20;;;7.70;99.90;;;;;;5111220;28;20203;-69
2023/12/20 10:41:46;;;;;;;8.93;2.10;;;7.60;99.90;;;;;;5116084;28;20468;-70
2023/12/20 10:44:13;;;;;;;3.60;1.93;;;7.60;99.90;;;;;;5115655;28;20456;-70
2023/12/20 10:46:40;;;;;;;4.40;1.80;;;7.60;99.90;;;;;;5116045;28;20421;-70
2023/12/20 10:49:08;;;;;;;7.57;2.80;;;7.70;99.90;;;;;;5101917;28;20457;-70
2023/12/20 10:51:34;;;;;;;3.40;1.90;;;7.80;99.90;;;;;;5095471;28;20421;-69
2023/12/20 10:54:00;;;;;;;3.03;2.70;;;7.90;99.90;;;;;;5095287;28;20523;-70
2023/12/20 10:56:31;;;;;;;5.33;2.20;;;7.90;99.90;;;;;;5095647;28;20444;-70
2023/12/20 10:59:02;;;;;;;5.20;2.30;;;8.00;99.90;;;;;;5108026;28;20164;-70
2023/12/20 11:01:29;;;;;;;6.80;2.70;;;7.90;99.90;;;;;;5115963;28;20784;-70
2023/12/20 11:03:55;;;;;;;5.13;2.03;;;8.10;99.90;;;;;;5115549;28;20548;-70
2023/12/20 11:06:41;;;;;;;4.97;2.53;;;8.00;99.90;;;;;;5116045;28;20466;-70
2023/12/20 11:09:14;;;;;;;3.57;1.70;;;8.00;99.90;;;;;;5093966;28;20692;-71
2023/12/20 11:12:11;;;;;;;2.53;2.00;;;7.90;99.90;;;;;;5095998;28;20391;-71
2023/12/20 11:14:55;;;;;;;4.90;1.83;;;7.80;99.90;;;;;;5095149;28;20476;-70
2023/12/20 11:17:21;;;;;;;8.27;2.27;;;7.70;99.90;;;;;;5095027;28;20399;-69
2023/12/20 11:19:52;;;;;;;3.60;2.10;;;7.90;99.90;;;;;;5114051;28;20776;-68
2023/12/20 11:22:20;;;;;;;2.20;2.00;;;7.90;99.90;;;;;;5115567;28;20168;-69
2023/12/20 11:24:46;;;;;;;6.17;2.10;;;8.00;99.90;;;;;;5115410;28;20963;-70
2023/12/20 11:27:13;;;;;;;3.40;2.10;;;8.10;99.90;;;;;;5111857;28;20902;-69
2023/12/20 11:29:39;;;;;;;6.67;2.67;;;8.00;99.90;;;;;;5097108;28;20402;-71
2023/12/20 11:32:25;;;;;;;3.80;2.07;;;8.00;99.90;;;;;;5094978;28;20403;-70
2023/12/20 11:34:53;;;;;;;3.10;1.50;;;7.70;99.90;;;;;;5078323;28;20483;-70
2023/12/20 11:37:20;;;;;;;3.20;2.40;;;7.70;99.90;;;;;;5115153;28;20455;-71
2023/12/20 11:39:53;;;;;;;3.10;1.80;;;7.70;99.90;;;;;;5096298;28;20978;-70
2023/12/20 11:42:20;;;;;;;2.00;1.67;;;7.60;99.90;;;;;;5096275;28;20433;-70
2023/12/20 11:44:46;;;;;;;5.30;1.87;;;7.50;99.90;;;;;;5115142;28;20437;-71
2023/12/20 11:47:13;;;;;;;3.43;1.97;;;7.50;99.90;;;;;;5114747;28;20506;-70
2023/12/20 11:49:39;;;;;;;6.27;1.97;;;7.50;99.90;;;;;;5114644;28;20208;-70
2023/12/20 11:52:04;;;;;;;2.83;1.73;;;7.50;99.90;;;;;;5096678;28;20406;-70
2023/12/20 11:54:30;;;;;;;5.60;2.47;;;7.50;99.90;;;;;;5114548;28;20267;-70
2023/12/20 11:56:56;;;;;;;6.30;2.00;;;7.50;99.90;;;;;;5114619;28;20164;-69
2023/12/20 11:59:21;;;;;;;5.80;2.10;;;7.50;99.90;;;;;;5114696;28;20178;-71
2023/12/20 12:01:56;;;;;;;5.50;2.10;;;7.60;99.90;;;;;;5096274;28;20172;-72
2023/12/20 12:04:21;;;;;;;5.07;2.40;;;7.70;99.90;;;;;;5096324;28;20198;-72
2023/12/20 12:06:47;;;;;;;7.53;2.37;;;7.60;99.90;;;;;;5114838;28;20403;-70
2023/12/20 12:09:12;;;;;;;3.90;2.50;;;7.50;99.90;;;;;;5111589;28;20176;-68
2023/12/20 12:11:38;;;;;;;3.43;2.20;;;7.40;99.90;;;;;;5093972;28;20673;-71
2023/12/20 12:14:04;;;;;;;4.30;2.33;;;7.50;99.90;;;;;;5075835;28;20251;-71
2023/12/20 12:16:29;;;;;;;7.60;2.23;;;7.60;99.90;;;;;;5075691;28;20589;-69
2023/12/20 12:18:58;;;;;;;3.40;2.13;;;7.60;99.90;;;;;;5104697;28;20170;-68
2023/12/20 12:21:24;;;;;;;6.33;2.30;;;7.60;99.90;;;;;;5114429;28;20500;-70
2023/12/20 12:23:50;;;;;;;3.77;2.43;;;7.60;99.90;;;;;;5113841;28;20547;-70
2023/12/20 12:26:16;;;;;;;3.53;1.90;;;7.80;99.90;;;;;;5113697;28;20168;-71
2023/12/20 12:28:42;;;;;;;2.20;1.50;;;7.90;99.90;;;;;;5113688;28;20232;-71
2023/12/20 12:31:13;;;;;;;4.30;2.17;;;8.10;99.90;;;;;;5113985;28;20659;-70
2023/12/20 12:33:39;;;;;;;4.10;1.60;;;8.20;99.90;;;;;;5113442;28;20418;-70
2023/12/20 12:36:07;;;;;;;2.40;2.20;;;8.20;99.90;;;;;;5095541;28;20414;-70
2023/12/20 12:38:32;;;;;;;10.30;2.70;;;8.30;99.90;;;;;;5114052;28;20744;-69
2023/12/20 12:40:58;;;;;;;4.40;2.30;;;8.30;99.90;;;;;;5113681;28;20406;-71
2023/12/20 12:43:24;;;;;;;3.23;2.00;;;8.40;99.90;;;;;;5113595;28;20257;-70
2023/12/20 12:45:49;;;;;;;5.23;2.77;;;8.50;99.90;;;;;;5095297;28;20560;-73
2023/12/20 12:48:15;;;;;;;4.10;2.50;;;8.50;99.90;;;;;;5108963;28;20174;-71
2023/12/20 12:50:40;;;;;;;5.10;2.10;;;8.40;99.90;;;;;;5093106;28;20170;-72